Lone Rock, Wisconsin
Current Conditions -  °F | °C
As of 1:56 AM on Friday 21 Nov 2014 (Local Time) from KLNR Reporting Station
Clear Clear  
Wind Chill:   Ceiling: Unl
Heat Index:   Visibility: 10mi
Dew Point: -5°   Wind: 0mph
Humidity: 72%   Direction: NA
Pressure: 30.35"   Gusts: NA
Location:  43.18°N, 90.2°W
Report Text: KLNR 210756Z AUTO 00000KT 10SM CLR M17/M21 A3035 RMK AO2 SLP286 T11671206
Loading
Personal Weather Stations






























Interactive Weather Map New forecast layout! Learn more

10-Day Weather Forecast

Advertisements
Track Severe Weather on mobile